createdAt,value
2022-11-24T00:00:43.296Z,27.90
2022-11-24T00:06:07.637Z,23.70
2022-11-24T00:11:14.211Z,19.80
2022-11-24T00:16:20.239Z,22.50
2022-11-24T00:21:24.489Z,21.40
2022-11-24T00:26:30.257Z,17.70
2022-11-24T00:31:38.527Z,19.90
2022-11-24T00:36:42.394Z,21.10
2022-11-24T00:41:45.508Z,17.50
2022-11-24T00:46:48.675Z,26.10
2022-11-24T00:51:52.141Z,18.20
2022-11-24T00:56:55.174Z,18.20
2022-11-24T01:01:58.201Z,20.90
2022-11-24T01:07:01.291Z,18.10
2022-11-24T01:12:04.543Z,18.30
2022-11-24T01:17:07.606Z,21.10
2022-11-24T01:22:10.620Z,21.70
2022-11-24T01:27:13.620Z,19.10
2022-11-24T01:32:16.626Z,22.00
2022-11-24T01:37:19.940Z,22.20
2022-11-24T01:42:23.251Z,19.80
2022-11-24T01:47:41.105Z,17.60
2022-11-24T01:52:49.847Z,26.80
2022-11-24T01:58:02.892Z,22.80
2022-11-24T02:03:06.421Z,19.30
2022-11-24T02:08:19.709Z,20.40
2022-11-24T02:13:23.066Z,18.70
2022-11-24T02:18:26.277Z,18.50
2022-11-24T02:24:00.312Z,24.10
2022-11-24T02:29:04.332Z,23.90
2022-11-24T02:34:07.350Z,22.00
2022-11-24T02:39:13.224Z,19.60
2022-11-24T02:44:20.015Z,24.30
2022-11-24T02:49:23.027Z,16.70
2022-11-24T02:54:26.130Z,32.50
2022-11-24T02:59:29.137Z,25.70
2022-11-24T03:04:32.503Z,23.00
2022-11-24T03:09:35.765Z,27.90
2022-11-24T03:14:38.772Z,25.00
2022-11-24T03:19:41.777Z,18.80
2022-11-24T03:24:44.987Z,38.30
2022-11-24T03:29:47.995Z,30.80
2022-11-24T03:34:51.000Z,26.50
2022-11-24T03:39:54.107Z,28.10
2022-11-24T03:44:57.220Z,27.70
2022-11-24T03:50:00.226Z,32.20
2022-11-24T03:55:03.331Z,24.90
2022-11-24T04:00:07.333Z,25.70
2022-11-24T04:05:10.572Z,32.90
2022-11-24T04:10:13.976Z,33.20
2022-11-24T04:15:19.266Z,24.50
2022-11-24T04:20:22.355Z,22.20
2022-11-24T04:25:25.361Z,26.30
2022-11-24T04:30:29.250Z,22.20
2022-11-24T04:35:32.297Z,29.10
2022-11-24T04:40:35.302Z,27.90
2022-11-24T04:45:38.825Z,27.80
2022-11-24T04:50:42.135Z,20.00
2022-11-24T04:55:45.138Z,19.50
2022-11-24T05:00:48.146Z,17.00
2022-11-24T05:05:51.154Z,29.20
2022-11-24T05:10:54.152Z,24.10
2022-11-24T05:15:57.149Z,20.00
2022-11-24T05:21:00.265Z,14.20
2022-11-24T05:26:03.783Z,20.60
2022-11-24T05:31:06.914Z,16.10
2022-11-24T05:36:30.479Z,22.60
2022-11-24T05:41:33.337Z,24.90
2022-11-24T05:46:36.325Z,16.80
2022-11-24T05:51:39.292Z,17.80
2022-11-24T05:56:42.200Z,14.40
2022-11-24T06:01:45.096Z,18.20
2022-11-24T06:06:48.101Z,15.10
2022-11-24T06:11:50.899Z,24.40
2022-11-24T06:16:53.653Z,26.90
2022-11-24T06:21:56.708Z,26.30
2022-11-24T06:26:59.654Z,23.20
2022-11-24T06:32:02.577Z,21.80
2022-11-24T06:37:05.611Z,25.60
2022-11-24T06:42:09.146Z,21.80
2022-11-24T06:47:11.935Z,21.10
2022-11-24T06:52:14.769Z,30.00
2022-11-24T06:57:17.752Z,37.60
2022-11-24T07:02:20.653Z,30.10
2022-11-24T07:07:23.785Z,23.80
2022-11-24T07:12:26.718Z,15.20
2022-11-24T07:17:29.523Z,31.70
2022-11-24T07:22:32.279Z,23.80
2022-11-24T07:27:35.174Z,22.30
2022-11-24T07:32:37.976Z,31.30
2022-11-24T07:37:40.716Z,32.10
2022-11-24T07:42:43.418Z,25.60
2022-11-24T07:47:46.249Z,24.10
2022-11-24T07:52:49.220Z,25.10
2022-11-24T07:57:52.093Z,25.80
2022-11-24T08:02:54.810Z,21.90
2022-11-24T08:07:59.997Z,18.50
2022-11-24T08:13:02.763Z,27.20
2022-11-24T08:18:06.078Z,26.60
2022-11-24T08:23:09.070Z,20.70
2022-11-24T08:28:11.848Z,21.80
2022-11-24T08:33:14.607Z,15.90
2022-11-24T08:38:17.460Z,27.30
2022-11-24T08:43:20.363Z,27.00
2022-11-24T08:48:23.167Z,33.50
2022-11-24T08:53:26.113Z,21.40
2022-11-24T08:58:30.200Z,26.00
2022-11-24T09:03:32.918Z,24.10
2022-11-24T09:08:37.521Z,21.60
2022-11-24T09:13:41.064Z,20.00
2022-11-24T09:18:44.464Z,28.80
2022-11-24T09:23:49.107Z,24.90
2022-11-24T09:28:56.321Z,23.30
2022-11-24T09:33:59.655Z,21.20
2022-11-24T09:39:03.164Z,25.20
2022-11-24T09:44:16.319Z,16.80
2022-11-24T09:49:51.695Z,21.30
2022-11-24T09:55:00.500Z,24.40
2022-11-24T10:00:12.569Z,19.00
2022-11-24T10:05:15.536Z,27.80
2022-11-24T10:10:37.050Z,22.70
2022-11-24T10:16:11.080Z,23.00
2022-11-24T10:21:32.837Z,20.20
2022-11-24T10:26:39.555Z,29.60
2022-11-24T10:37:08.306Z,24.50
2022-11-24T10:42:18.260Z,20.10
2022-11-24T10:47:22.909Z,23.60
2022-11-24T10:52:28.828Z,21.20
2022-11-24T10:57:37.328Z,32.30
2022-11-24T11:02:40.585Z,33.40
2022-11-24T11:07:43.743Z,31.10
2022-11-24T11:12:46.813Z,25.10
2022-11-24T11:17:52.534Z,30.00
2022-11-24T11:22:57.539Z,22.40
2022-11-24T11:28:29.238Z,35.90
2022-11-24T11:38:59.733Z,27.00
2022-11-24T11:44:11.748Z,30.60
2022-11-24T11:49:14.569Z,20.50
2022-11-24T11:54:34.060Z,22.90
2022-11-24T12:00:05.587Z,26.70
2022-11-24T12:05:14.367Z,34.50
2022-11-24T12:10:33.879Z,20.40
2022-11-24T12:15:56.986Z,31.50
2022-11-24T12:21:29.486Z,26.90
2022-11-24T12:26:41.443Z,24.80
2022-11-24T12:32:03.802Z,33.80
2022-11-24T12:37:24.806Z,34.40
2022-11-24T12:42:36.715Z,26.10
2022-11-24T12:48:07.337Z,36.00
2022-11-24T12:53:14.994Z,36.00
2022-11-24T12:58:31.659Z,34.60
2022-11-24T13:04:12.548Z,33.30
2022-11-24T13:09:15.812Z,38.30
2022-11-24T13:14:22.867Z,39.40
2022-11-24T13:19:31.137Z,41.10
2022-11-24T13:24:37.451Z,28.70
2022-11-24T13:30:01.356Z,29.60
2022-11-24T13:35:14.803Z,26.70
2022-11-24T13:40:18.341Z,49.00
2022-11-24T13:45:39.545Z,38.40
2022-11-24T13:50:51.929Z,39.20
2022-11-24T13:55:59.977Z,35.00
2022-11-24T14:01:08.903Z,37.50
2022-11-24T14:06:25.827Z,30.30
2022-11-24T14:11:29.153Z,36.00
2022-11-24T14:16:31.851Z,46.60
2022-11-24T14:21:38.253Z,48.10
2022-11-24T14:26:41.761Z,35.90
2022-11-24T14:31:56.309Z,31.60
2022-11-24T14:37:00.755Z,29.10
2022-11-24T14:42:08.142Z,29.40
2022-11-24T14:47:32.250Z,40.80
2022-11-24T14:52:36.106Z,36.20
2022-11-24T14:57:42.601Z,38.10
2022-11-24T15:03:00.414Z,29.00
2022-11-24T15:08:03.991Z,28.10
2022-11-24T15:13:15.261Z,35.20
2022-11-24T15:18:30.044Z,31.60
2022-11-24T15:23:35.236Z,26.60
2022-11-24T15:28:38.533Z,24.20
2022-11-24T15:33:42.247Z,24.70
2022-11-24T15:38:44.955Z,52.70
2022-11-24T15:43:47.789Z,29.40
2022-11-24T15:48:50.592Z,39.40
2022-11-24T15:54:00.378Z,29.60
2022-11-24T15:59:04.184Z,36.70
2022-11-24T16:04:07.798Z,30.30
2022-11-24T16:09:15.034Z,29.00
2022-11-24T16:14:17.807Z,36.30
2022-11-24T16:19:20.562Z,47.80
2022-11-24T16:24:23.358Z,33.80
2022-11-24T16:29:26.211Z,28.40
2022-11-24T16:34:28.910Z,29.70
2022-11-24T16:39:31.666Z,32.80
2022-11-24T16:44:34.852Z,37.20
2022-11-24T16:49:37.887Z,35.20
2022-11-24T16:54:40.684Z,26.70
2022-11-24T16:59:43.738Z,49.70
2022-11-24T17:04:46.539Z,43.40
2022-11-24T17:09:49.437Z,41.00
2022-11-24T17:15:16.288Z,37.50
2022-11-24T17:20:15.479Z,34.50
2022-11-24T17:25:18.333Z,35.60
2022-11-24T17:30:21.112Z,34.80
2022-11-24T17:35:23.813Z,37.80
2022-11-24T17:40:29.080Z,52.30
2022-11-24T17:45:32.670Z,53.70
2022-11-24T17:50:35.521Z,52.80
2022-11-24T17:55:38.513Z,47.40
2022-11-24T18:00:41.251Z,51.30
2022-11-24T18:05:44.136Z,46.40
2022-11-24T18:10:46.991Z,33.10
2022-11-24T18:15:49.711Z,45.00
2022-11-24T18:21:01.211Z,39.10
2022-11-24T18:26:05.707Z,42.80
2022-11-24T18:31:12.261Z,33.20
2022-11-24T18:36:18.538Z,34.50
2022-11-24T18:41:22.367Z,30.50
2022-11-24T18:46:25.572Z,37.90
2022-11-24T18:51:28.437Z,40.60
2022-11-24T18:56:31.675Z,49.30
2022-11-24T19:01:34.521Z,46.60
2022-11-24T19:06:38.008Z,35.90
2022-11-24T19:11:43.477Z,44.20
2022-11-24T19:16:48.272Z,34.50
2022-11-24T19:21:51.533Z,39.60
2022-11-24T19:26:54.778Z,45.90
2022-11-24T19:31:57.710Z,47.10
2022-11-24T19:37:00.961Z,63.20
2022-11-24T19:42:04.880Z,53.50
2022-11-24T19:47:07.569Z,46.50
2022-11-24T19:52:10.325Z,52.00
2022-11-24T19:57:13.190Z,55.10
2022-11-24T20:02:16.129Z,50.40
2022-11-24T20:07:20.508Z,53.00
2022-11-24T20:12:23.539Z,41.10
2022-11-24T20:17:30.091Z,57.80
2022-11-24T20:22:32.932Z,49.90
2022-11-24T20:27:35.670Z,37.80
2022-11-24T20:32:38.440Z,45.70
2022-11-24T20:43:01.750Z,34.00
2022-11-24T20:48:04.633Z,41.20
2022-11-24T20:53:07.556Z,33.80
2022-11-24T20:58:11.593Z,49.90
2022-11-24T21:03:14.493Z,39.30
2022-11-24T21:08:19.458Z,39.30
2022-11-24T21:13:22.377Z,36.60
2022-11-24T21:18:25.135Z,30.80
2022-11-24T21:23:28.273Z,33.20
2022-11-24T21:28:31.151Z,27.40
2022-11-24T21:33:34.329Z,20.90
2022-11-24T21:38:37.144Z,33.40
2022-11-24T21:43:39.885Z,38.00
2022-11-24T21:48:43.057Z,39.10
2022-11-24T21:53:47.115Z,81.00
2022-11-24T21:58:53.620Z,52.60
2022-11-24T22:03:56.507Z,54.70
2022-11-24T22:08:59.329Z,35.80
2022-11-24T22:14:02.108Z,40.00
2022-11-24T22:19:05.020Z,46.40
2022-11-24T22:24:08.372Z,29.40
2022-11-24T22:29:11.235Z,37.30
2022-11-24T22:34:14.005Z,25.50
2022-11-24T22:39:16.742Z,27.00
2022-11-24T22:44:19.503Z,26.30
2022-11-24T22:49:23.672Z,38.70
2022-11-24T22:54:26.388Z,35.30
2022-11-24T22:59:29.177Z,28.40
2022-11-24T23:04:31.947Z,25.40
2022-11-24T23:09:34.767Z,25.30
2022-11-24T23:14:37.634Z,25.80
2022-11-24T23:19:40.495Z,23.40
2022-11-24T23:24:43.280Z,30.70
2022-11-24T23:29:46.094Z,29.70
2022-11-24T23:34:48.979Z,23.20
2022-11-24T23:39:51.993Z,36.20
2022-11-24T23:44:54.786Z,33.80
2022-11-24T23:49:57.469Z,28.10
